Time;durP1;ratioP1;P1;durP2;ratioP2;P2;SDS_P1;SDS_P2;PMS_P1;PMS_P2;Temp;Humidity;BMP_temperature;BMP_pressure;BME280_temperature;BME280_humidity;BME280_pressure;Samples;Min_cycle;Max_cycle;Signal;HPM_P1;HPM_P2
2022/08/05 00:02:39;;;;;;;13.23;9.10;;;;;;;;;;6249369;28;20577;-62
2022/08/05 00:05:42;;;;;;;12.37;9.07;;;;;;;;;;6253855;28;20110;-66
2022/08/05 00:08:43;;;;;;;13.00;9.05;;;;;;;;;;6247585;28;20080;-65
2022/08/05 00:11:43;;;;;;;13.57;8.82;;;;;;;;;;6249955;28;22089;-65
2022/08/05 00:14:44;;;;;;;11.73;8.70;;;;;;;;;;6251735;28;20053;-60
2022/08/05 00:17:44;;;;;;;11.57;8.73;;;;;;;;;;6255663;28;20140;-64
2022/08/05 00:20:45;;;;;;;14.07;9.03;;;;;;;;;;6253173;28;20053;-66
2022/08/05 00:23:47;;;;;;;13.27;9.40;;;;;;;;;;6250876;28;20057;-60
2022/08/05 00:26:47;;;;;;;14.18;9.45;;;;;;;;;;6249982;28;20045;-62
2022/08/05 00:29:48;;;;;;;15.63;9.23;;;;;;;;;;6258525;28;20063;-64
2022/08/05 00:32:48;;;;;;;16.30;9.47;;;;;;;;;;6252951;28;21670;-63
2022/08/05 00:35:49;;;;;;;12.40;8.80;;;;;;;;;;6254584;28;20049;-61
2022/08/05 00:38:50;;;;;;;13.23;9.33;;;;;;;;;;6252617;28;20532;-62
2022/08/05 00:41:51;;;;;;;13.00;9.77;;;;;;;;;;6254570;28;20798;-65
2022/08/05 00:44:51;;;;;;;13.47;9.13;;;;;;;;;;6259122;28;20068;-63
2022/08/05 00:47:52;;;;;;;12.50;9.30;;;;;;;;;;6253209;28;20053;-61
2022/08/05 00:50:53;;;;;;;13.10;9.97;;;;;;;;;;6248360;28;20620;-63
2022/08/05 00:53:54;;;;;;;13.63;10.18;;;;;;;;;;6251057;28;20053;-64
2022/08/05 00:56:54;;;;;;;11.90;9.90;;;;;;;;;;6250619;28;20044;-60
2022/08/05 00:59:55;;;;;;;13.10;9.67;;;;;;;;;;6250652;28;20049;-60
2022/08/05 01:02:57;;;;;;;12.57;9.50;;;;;;;;;;6250381;28;20146;-60
2022/08/05 01:05:57;;;;;;;14.05;9.68;;;;;;;;;;6250455;28;20059;-60
2022/08/05 01:08:59;;;;;;;12.70;9.80;;;;;;;;;;6248520;28;20420;-60
2022/08/05 01:12:07;;;;;;;13.25;9.32;;;;;;;;;;6248593;28;20509;-64
2022/08/05 01:15:10;;;;;;;14.40;9.43;;;;;;;;;;6246134;28;20076;-59
2022/08/05 01:18:14;;;;;;;16.15;10.20;;;;;;;;;;6248465;28;20063;-63
2022/08/05 01:21:53;;;;;;;12.55;9.48;;;;;;;;;;6246787;28;20160;-63
2022/08/05 01:25:10;;;;;;;15.68;10.00;;;;;;;;;;6247286;28;20067;-65
2022/08/05 01:28:42;;;;;;;16.98;10.60;;;;;;;;;;6249221;28;20618;-66
2022/08/05 01:31:47;;;;;;;14.80;10.10;;;;;;;;;;6247460;28;20086;-62
2022/08/05 01:34:58;;;;;;;15.43;9.57;;;;;;;;;;6249143;28;20187;-60
2022/08/05 01:38:01;;;;;;;12.43;9.98;;;;;;;;;;6246892;28;20045;-59
2022/08/05 01:41:04;;;;;;;13.65;9.90;;;;;;;;;;6254564;28;20492;-64
2022/08/05 01:44:06;;;;;;;14.40;10.73;;;;;;;;;;6252061;28;20098;-60
2022/08/05 01:47:09;;;;;;;14.35;9.73;;;;;;;;;;6248970;28;20065;-66
2022/08/05 01:50:13;;;;;;;11.80;10.18;;;;;;;;;;6247931;28;20075;-66
2022/08/05 01:53:16;;;;;;;13.05;10.25;;;;;;;;;;6249195;28;20092;-66
2022/08/05 01:56:17;;;;;;;13.55;10.45;;;;;;;;;;6249016;28;20181;-62
2022/08/05 01:59:21;;;;;;;13.48;9.55;;;;;;;;;;6248776;28;20057;-65
2022/08/05 02:02:22;;;;;;;12.85;10.07;;;;;;;;;;6248789;28;20055;-63
2022/08/05 02:05:29;;;;;;;14.57;10.63;;;;;;;;;;6250897;28;20610;-66
2022/08/05 02:08:31;;;;;;;14.57;10.52;;;;;;;;;;6247279;28;20079;-64
2022/08/05 02:11:39;;;;;;;;;;;;;;;;;;6249586;28;20142;-61
2022/08/05 02:15:05;;;;;;;14.85;10.07;;;;;;;;;;6250914;28;19943;-64
2022/08/05 02:18:29;;;;;;;18.35;10.02;;;;;;;;;;6248532;28;20064;-64
2022/08/05 02:21:35;;;;;;;12.60;9.38;;;;;;;;;;6248627;28;20037;-63
2022/08/05 02:24:39;;;;;;;14.73;9.82;;;;;;;;;;6252925;28;20063;-65
2022/08/05 02:27:41;;;;;;;13.43;9.90;;;;;;;;;;6262347;28;20143;-61
2022/08/05 02:30:50;;;;;;;11.90;10.05;;;;;;;;;;6267892;28;20045;-63
2022/08/05 02:33:56;;;;;;;16.13;10.20;;;;;;;;;;6262247;28;20540;-64
2022/08/05 02:36:59;;;;;;;16.42;10.60;;;;;;;;;;6259343;28;20084;-66
2022/08/05 02:40:02;;;;;;;16.83;10.18;;;;;;;;;;6262806;28;20044;-64
2022/08/05 02:43:03;;;;;;;14.93;10.68;;;;;;;;;;6259623;28;20567;-64
2022/08/05 02:46:05;;;;;;;14.48;9.98;;;;;;;;;;6258566;28;20576;-63
2022/08/05 02:49:06;;;;;;;13.10;10.52;;;;;;;;;;6258023;28;20568;-63
2022/08/05 02:52:15;;;;;;;14.15;10.18;;;;;;;;;;6262213;28;20493;-63
2022/08/05 02:55:16;;;;;;;12.50;9.90;;;;;;;;;;6255126;28;20036;-66
2022/08/05 02:58:20;;;;;;;15.10;9.70;;;;;;;;;;6262494;28;20140;-64
2022/08/05 03:01:23;;;;;;;14.82;9.55;;;;;;;;;;6261511;28;20477;-63
2022/08/05 03:04:24;;;;;;;12.98;9.90;;;;;;;;;;6263612;28;20087;-65
2022/08/05 03:07:26;;;;;;;18.53;9.97;;;;;;;;;;6265652;28;20480;-64
2022/08/05 03:10:27;;;;;;;18.52;11.25;;;;;;;;;;6261898;28;20045;-63
2022/08/05 03:13:28;;;;;;;18.40;11.60;;;;;;;;;;6263305;28;20049;-64
2022/08/05 03:16:28;;;;;;;15.00;10.77;;;;;;;;;;6265128;28;20862;-65
2022/08/05 03:19:29;;;;;;;18.10;11.37;;;;;;;;;;6259573;28;20504;-64
2022/08/05 03:22:32;;;;;;;18.98;12.20;;;;;;;;;;6267074;28;20484;-63
2022/08/05 03:25:35;;;;;;;16.70;10.27;;;;;;;;;;6260069;28;20087;-64
2022/08/05 03:28:36;;;;;;;15.57;10.73;;;;;;;;;;6268097;28;20563;-65
2022/08/05 03:31:37;;;;;;;14.20;10.43;;;;;;;;;;6267909;28;20428;-64
2022/08/05 03:34:38;;;;;;;13.13;10.23;;;;;;;;;;6263920;28;20352;-66
2022/08/05 03:37:39;;;;;;;15.03;10.37;;;;;;;;;;6266972;28;20047;-65
2022/08/05 03:40:45;;;;;;;17.88;11.02;;;;;;;;;;6264040;28;20156;-60
2022/08/05 03:43:45;;;;;;;13.20;9.77;;;;;;;;;;6267671;28;20056;-64
2022/08/05 03:46:46;;;;;;;14.07;9.93;;;;;;;;;;6262488;28;20484;-65
2022/08/05 03:49:46;;;;;;;12.48;9.90;;;;;;;;;;6266789;28;20470;-61
2022/08/05 03:53:17;;;;;;;14.50;10.50;;;;;;;;;;6262864;28;20056;-65
2022/08/05 03:56:28;;;;;;;18.90;11.27;;;;;;;;;;6265069;28;20582;-62
2022/08/05 03:59:34;;;;;;;13.05;9.52;;;;;;;;;;6252743;28;20068;-65
2022/08/05 04:02:36;;;;;;;13.40;10.20;;;;;;;;;;6264355;28;20053;-61
2022/08/05 04:05:38;;;;;;;16.02;10.82;;;;;;;;;;6264270;28;20483;-65
2022/08/05 04:08:39;;;;;;;16.83;11.52;;;;;;;;;;6264605;28;20048;-65
2022/08/05 04:11:39;;;;;;;16.13;11.47;;;;;;;;;;6262256;28;20048;-63
2022/08/05 04:14:41;;;;;;;15.27;11.40;;;;;;;;;;6264787;28;20040;-65
2022/08/05 04:17:42;;;;;;;27.52;18.30;;;;;;;;;;6260484;28;20188;-66
2022/08/05 04:20:43;;;;;;;16.63;10.93;;;;;;;;;;6264468;28;20400;-66
2022/08/05 04:23:44;;;;;;;17.02;11.18;;;;;;;;;;6266611;28;20512;-64
2022/08/05 04:26:44;;;;;;;15.85;11.07;;;;;;;;;;6266247;28;20048;-60
2022/08/05 04:29:45;;;;;;;16.57;10.80;;;;;;;;;;6261165;28;20072;-60
2022/08/05 04:32:45;;;;;;;15.55;10.63;;;;;;;;;;6262013;28;20645;-64
2022/08/05 04:35:46;;;;;;;16.50;10.23;;;;;;;;;;6264314;28;20491;-65
2022/08/05 04:38:46;;;;;;;16.33;10.20;;;;;;;;;;6258500;28;20052;-63
2022/08/05 04:41:48;;;;;;;13.88;9.50;;;;;;;;;;6267637;28;20598;-65
2022/08/05 04:44:48;;;;;;;18.50;9.80;;;;;;;;;;6262901;28;20063;-65
2022/08/05 04:47:49;;;;;;;12.90;10.07;;;;;;;;;;6263126;28;20050;-61
2022/08/05 04:50:49;;;;;;;14.77;9.90;;;;;;;;;;6280594;28;20045;-64
2022/08/05 04:53:50;;;;;;;16.53;10.63;;;;;;;;;;6263492;28;20120;-64
2022/08/05 04:56:50;;;;;;;15.17;10.50;;;;;;;;;;6258031;28;20050;-64
2022/08/05 04:59:51;;;;;;;15.33;9.93;;;;;;;;;;6264369;28;20061;-63
2022/08/05 05:02:51;;;;;;;13.90;9.70;;;;;;;;;;6263937;28;20052;-66
2022/08/05 05:05:52;;;;;;;15.03;10.23;;;;;;;;;;6264717;28;20049;-65
2022/08/05 05:08:52;;;;;;;17.83;10.60;;;;;;;;;;6257701;28;20048;-62
2022/08/05 05:11:53;;;;;;;15.17;10.47;;;;;;;;;;6263672;28;20113;-65
2022/08/05 05:14:53;;;;;;;19.87;11.53;;;;;;;;;;6263300;28;20249;-65
2022/08/05 05:17:54;;;;;;;16.10;10.70;;;;;;;;;;6264566;28;20078;-65
2022/08/05 05:20:54;;;;;;;15.07;11.10;;;;;;;;;;6263480;28;20060;-64
2022/08/05 05:23:55;;;;;;;17.37;11.60;;;;;;;;;;6260034;28;20066;-63
2022/08/05 05:26:55;;;;;;;15.07;11.20;;;;;;;;;;6263024;28;20039;-65
2022/08/05 05:29:56;;;;;;;16.27;11.37;;;;;;;;;;6264938;28;20053;-60
2022/08/05 05:32:58;;;;;;;15.30;11.07;;;;;;;;;;6261585;28;20041;-64
2022/08/05 05:35:59;;;;;;;17.35;11.25;;;;;;;;;;6265090;28;20090;-63
2022/08/05 05:38:59;;;;;;;15.70;11.13;;;;;;;;;;6263962;28;20041;-65
2022/08/05 05:42:00;;;;;;;13.90;10.50;;;;;;;;;;6265630;28;20480;-64
2022/08/05 05:45:00;;;;;;;15.00;10.40;;;;;;;;;;6262601;28;20049;-64
2022/08/05 05:48:01;;;;;;;15.97;10.90;;;;;;;;;;6260122;28;20053;-65
2022/08/05 05:51:02;;;;;;;13.97;11.13;;;;;;;;;;6257399;28;20041;-62
2022/08/05 05:54:03;;;;;;;16.77;10.80;;;;;;;;;;6262821;28;20140;-64
2022/08/05 05:57:04;;;;;;;13.90;10.43;;;;;;;;;;6263731;28;20045;-64
2022/08/05 06:00:08;;;;;;;18.07;11.60;;;;;;;;;;6251404;28;20049;-60
2022/08/05 06:03:08;;;;;;;15.70;11.07;;;;;;;;;;6267645;28;20052;-61
2022/08/05 06:06:09;;;;;;;19.27;11.67;;;;;;;;;;6264789;28;20147;-64
2022/08/05 06:09:10;;;;;;;16.57;11.30;;;;;;;;;;6265506;28;20047;-61
2022/08/05 06:12:11;;;;;;;15.70;10.93;;;;;;;;;;6273252;28;20132;-63
2022/08/05 06:15:11;;;;;;;16.40;10.97;;;;;;;;;;6262714;28;20043;-63
2022/08/05 06:18:12;;;;;;;14.43;11.07;;;;;;;;;;6263345;28;20053;-64
2022/08/05 06:21:12;;;;;;;16.17;11.70;;;;;;;;;;6260115;28;20052;-64
2022/08/05 06:24:13;;;;;;;15.17;10.93;;;;;;;;;;6259557;28;20045;-62
2022/08/05 06:27:14;;;;;;;17.90;11.77;;;;;;;;;;6264509;28;20049;-64
2022/08/05 06:30:15;;;;;;;16.93;11.90;;;;;;;;;;6272077;28;20227;-65
2022/08/05 06:33:15;;;;;;;14.97;11.10;;;;;;;;;;6265151;28;20053;-63
2022/08/05 06:36:16;;;;;;;14.67;10.67;;;;;;;;;;6266369;28;20052;-63
2022/08/05 06:39:16;;;;;;;16.43;11.27;;;;;;;;;;6258582;28;20040;-62
2022/08/05 06:42:17;;;;;;;14.37;11.67;;;;;;;;;;6268882;28;20045;-60
2022/08/05 06:45:18;;;;;;;14.77;11.33;;;;;;;;;;6261314;28;20086;-64
2022/08/05 06:48:18;;;;;;;15.45;11.18;;;;;;;;;;6267855;28;20595;-62
2022/08/05 06:51:19;;;;;;;20.63;11.23;;;;;;;;;;6281107;28;20056;-63
2022/08/05 06:54:19;;;;;;;15.83;10.90;;;;;;;;;;6291066;28;20334;-63
2022/08/05 06:57:20;;;;;;;18.40;10.77;;;;;;;;;;6268764;28;20041;-66
2022/08/05 07:00:21;;;;;;;16.67;11.23;;;;;;;;;;6290697;28;20381;-66
2022/08/05 07:03:21;;;;;;;14.43;11.03;;;;;;;;;;6274155;28;20400;-61
2022/08/05 07:06:22;;;;;;;17.07;11.00;;;;;;;;;;6281589;28;20049;-70
2022/08/05 07:09:22;;;;;;;18.97;11.20;;;;;;;;;;6284480;28;20048;-61
2022/08/05 07:19:01;;;;;;;15.18;10.65;;;;;;;;;;6285649;28;20055;-64
2022/08/05 07:22:02;;;;;;;18.63;11.67;;;;;;;;;;6284376;28;20048;-61
2022/08/05 07:25:03;;;;;;;14.60;11.00;;;;;;;;;;6284448;28;20491;-62
2022/08/05 07:28:04;;;;;;;15.27;10.90;;;;;;;;;;6283501;28;20099;-60
2022/08/05 07:31:06;;;;;;;12.23;10.73;;;;;;;;;;6287459;28;20041;-61
2022/08/05 07:34:07;;;;;;;16.95;11.32;;;;;;;;;;6284208;28;20490;-63
2022/08/05 07:37:07;;;;;;;15.17;11.43;;;;;;;;;;6283782;28;20044;-63
2022/08/05 07:40:09;;;;;;;15.17;10.77;;;;;;;;;;6282228;28;20032;-62
2022/08/05 07:43:10;;;;;;;;;;;;;;;;;;6279982;28;20828;-64
2022/08/05 07:46:10;;;;;;;14.13;10.53;;;;;;;;;;6279495;28;19971;-65
2022/08/05 07:49:12;;;;;;;16.15;11.27;;;;;;;;;;6273774;28;20541;-65
2022/08/05 07:52:13;;;;;;;14.73;10.63;;;;;;;;;;6279977;28;20041;-64
2022/08/05 07:55:13;;;;;;;12.13;9.93;;;;;;;;;;6284561;28;20072;-68
2022/08/05 07:58:15;;;;;;;17.03;10.97;;;;;;;;;;6285128;28;20051;-61
2022/08/05 08:01:16;;;;;;;13.68;9.55;;;;;;;;;;6284563;28;20128;-65
2022/08/05 08:04:16;;;;;;;13.03;10.17;;;;;;;;;;6280562;28;20049;-62
2022/08/05 08:07:17;;;;;;;15.63;10.77;;;;;;;;;;6283291;28;20090;-64
2022/08/05 08:10:18;;;;;;;11.67;10.03;;;;;;;;;;6278507;28;20302;-64
2022/08/05 08:13:18;;;;;;;13.07;10.40;;;;;;;;;;6284443;28;20445;-64
2022/08/05 08:16:19;;;;;;;12.60;10.43;;;;;;;;;;6286236;28;20068;-64
2022/08/05 08:19:19;;;;;;;13.27;10.10;;;;;;;;;;6281423;28;20132;-63
2022/08/05 08:22:25;;;;;;;12.17;9.87;;;;;;;;;;6289026;28;20067;-64
2022/08/05 08:25:27;;;;;;;15.32;10.23;;;;;;;;;;6283980;28;20048;-64
2022/08/05 08:28:28;;;;;;;14.30;10.63;;;;;;;;;;6274813;28;20507;-64
2022/08/05 08:31:29;;;;;;;;;;;;;;;;;;6281994;28;20499;-64
2022/08/05 08:34:29;;;;;;;12.97;10.00;;;;;;;;;;6280633;28;19924;-63
2022/08/05 08:37:30;;;;;;;12.97;9.83;;;;;;;;;;6285766;28;20036;-64
2022/08/05 08:40:34;;;;;;;13.00;10.63;;;;;;;;;;6285205;28;20045;-63
2022/08/05 08:43:36;;;;;;;11.75;9.98;;;;;;;;;;6284531;28;20056;-60
2022/08/05 08:46:37;;;;;;;13.93;9.80;;;;;;;;;;6286790;28;20088;-65
2022/08/05 08:49:42;;;;;;;13.63;9.67;;;;;;;;;;6283528;28;20064;-65
2022/08/05 08:52:48;;;;;;;11.00;9.32;;;;;;;;;;6286074;28;20289;-65
2022/08/05 08:55:49;;;;;;;17.42;10.05;;;;;;;;;;6278224;28;20063;-64
2022/08/05 08:58:51;;;;;;;12.63;9.60;;;;;;;;;;6277355;28;20130;-66
2022/08/05 09:01:52;;;;;;;12.07;9.43;;;;;;;;;;6286724;28;20044;-64
2022/08/05 09:04:52;;;;;;;13.60;9.57;;;;;;;;;;6282619;28;20568;-64
2022/08/05 09:07:53;;;;;;;11.63;9.95;;;;;;;;;;6280243;28;20086;-66
2022/08/05 09:10:54;;;;;;;16.90;9.40;;;;;;;;;;6280713;28;20055;-66
2022/08/05 09:13:55;;;;;;;11.30;9.02;;;;;;;;;;6283664;28;20140;-64
2022/08/05 09:16:56;;;;;;;11.40;9.05;;;;;;;;;;6266939;28;20377;-67
2022/08/05 09:19:58;;;;;;;10.80;9.32;;;;;;;;;;6286583;28;20033;-64
2022/08/05 09:23:16;;;;;;;10.07;8.02;;;;;;;;;;6276829;28;20553;-64
2022/08/05 09:26:18;;;;;;;10.68;8.27;;;;;;;;;;6280172;28;20052;-64
2022/08/05 09:29:18;;;;;;;14.18;8.50;;;;;;;;;;6280196;28;20044;-65
2022/08/05 09:32:33;;;;;;;13.23;8.23;;;;;;;;;;6276149;28;20068;-65
2022/08/05 09:35:33;;;;;;;11.10;8.38;;;;;;;;;;6279565;28;20049;-65
2022/08/05 09:38:34;;;;;;;13.33;7.90;;;;;;;;;;6280830;28;20044;-66
2022/08/05 09:42:03;;;;;;;9.27;8.10;;;;;;;;;;6278105;28;20302;-65
2022/08/05 09:45:08;;;;;;;11.13;8.63;;;;;;;;;;6265665;28;20091;-65
2022/08/05 09:48:38;;;;;;;10.32;7.78;;;;;;;;;;6264359;28;20059;-66
2022/08/05 09:51:40;;;;;;;9.18;7.22;;;;;;;;;;6244242;28;20504;-65
2022/08/05 09:54:51;;;;;;;10.68;7.75;;;;;;;;;;6250786;28;20055;-65
2022/08/05 09:57:52;;;;;;;9.68;6.82;;;;;;;;;;6249404;28;20044;-65
2022/08/05 10:00:58;;;;;;;8.35;6.35;;;;;;;;;;6256205;28;20063;-64
2022/08/05 10:04:07;;;;;;;7.20;6.03;;;;;;;;;;6256632;28;20144;-64
2022/08/05 10:07:08;;;;;;;7.65;6.40;;;;;;;;;;6251648;28;20084;-63
2022/08/05 10:10:09;;;;;;;11.77;7.10;;;;;;;;;;6252536;28;20049;-61
2022/08/05 10:13:10;;;;;;;8.45;6.80;;;;;;;;;;6254420;28;20502;-62
2022/08/05 10:16:27;;;;;;;;;;;;;;;;;;6253132;28;20048;-63
2022/08/05 10:19:28;;;;;;;12.85;7.40;;;;;;;;;;6251213;28;19948;-65
2022/08/05 10:22:28;;;;;;;10.20;6.75;;;;;;;;;;6253823;28;20170;-64
2022/08/05 10:25:29;;;;;;;8.97;6.77;;;;;;;;;;6253664;28;20057;-66
2022/08/05 10:28:30;;;;;;;8.95;7.18;;;;;;;;;;6253397;28;20568;-65
2022/08/05 10:31:31;;;;;;;8.15;6.95;;;;;;;;;;6251270;28;20048;-65
2022/08/05 10:34:33;;;;;;;9.73;7.68;;;;;;;;;;6254562;28;20056;-64
2022/08/05 10:37:34;;;;;;;8.68;7.68;;;;;;;;;;6254041;28;20053;-66
2022/08/05 10:40:42;;;;;;;7.63;6.65;;;;;;;;;;6252562;28;20496;-63
2022/08/05 10:44:01;;;;;;;12.02;8.95;;;;;;;;;;6254740;28;20094;-62
2022/08/05 10:47:10;;;;;;;9.23;6.95;;;;;;;;;;6254060;28;20084;-65
2022/08/05 10:50:15;;;;;;;11.85;7.28;;;;;;;;;;6250222;28;20146;-65
2022/08/05 10:53:33;;;;;;;9.57;7.80;;;;;;;;;;6255740;28;20563;-66
2022/08/05 10:56:47;;;;;;;11.00;7.43;;;;;;;;;;6252284;28;20149;-63
2022/08/05 10:59:48;;;;;;;8.90;7.60;;;;;;;;;;6254222;28;20091;-65
2022/08/05 11:03:10;;;;;;;8.90;8.00;;;;;;;;;;6248689;28;20634;-64
2022/08/05 11:06:12;;;;;;;9.65;7.80;;;;;;;;;;6252462;28;20374;-64
2022/08/05 11:09:20;;;;;;;10.65;8.18;;;;;;;;;;6253976;28;20056;-64
2022/08/05 11:12:33;;;;;;;12.15;7.93;;;;;;;;;;6247512;28;20138;-65
2022/08/05 11:15:39;;;;;;;9.63;8.25;;;;;;;;;;6251609;28;20064;-65
2022/08/05 11:18:40;;;;;;;11.25;9.25;;;;;;;;;;6252647;28;21367;-64
2022/08/05 11:21:40;;;;;;;11.93;8.23;;;;;;;;;;6250811;28;20049;-65
2022/08/05 11:24:44;;;;;;;11.63;8.35;;;;;;;;;;6253822;28;22881;-65
2022/08/05 11:27:45;;;;;;;9.15;8.25;;;;;;;;;;6255201;28;20080;-63
2022/08/05 11:30:54;;;;;;;10.68;8.65;;;;;;;;;;6249898;28;20052;-66
2022/08/05 11:34:00;;;;;;;11.63;8.73;;;;;;;;;;6251757;28;20092;-63
2022/08/05 11:37:01;;;;;;;10.40;8.07;;;;;;;;;;6249616;28;20053;-65
2022/08/05 11:40:03;;;;;;;;;;;;;;;;;;6253097;28;20045;-63
2022/08/05 11:43:03;;;;;;;10.38;8.65;;;;;;;;;;6254087;28;19928;-65
2022/08/05 11:46:04;;;;;;;10.77;8.87;;;;;;;;;;6250448;28;20111;-65
2022/08/05 11:49:06;;;;;;;;;;;;;;;;;;6255334;28;20045;-65
2022/08/05 11:52:07;;;;;;;;;;;;;;;;;;6252880;28;19928;-63
2022/08/05 11:55:08;;;;;;;10.52;8.52;;;;;;;;;;6254980;28;20845;-66
2022/08/05 11:58:09;;;;;;;11.80;8.70;;;;;;;;;;6254770;28;20420;-66
2022/08/05 12:01:11;;;;;;;;;;;;;;;;;;6258807;28;20087;-64
2022/08/05 12:04:13;;;;;;;12.65;9.20;;;;;;;;;;6259919;28;20010;-66
2022/08/05 12:07:15;;;;;;;;;;;;;;;;;;6257931;28;20487;-62
2022/08/05 12:10:17;;;;;;;;;;;;;;;;;;6252983;28;20719;-63
2022/08/05 12:13:17;;;;;;;9.80;8.80;;;;;;;;;;6260729;28;19982;-62
2022/08/05 12:16:18;;;;;;;;;;;;;;;;;;6259727;28;20041;-65
2022/08/05 12:19:21;;;;;;;10.17;9.00;;;;;;;;;;6259486;28;19928;-66
2022/08/05 12:22:26;;;;;;;10.85;8.75;;;;;;;;;;6257002;28;20171;-65
2022/08/05 12:25:27;;;;;;;11.50;9.25;;;;;;;;;;6257138;28;20052;-66
2022/08/05 12:28:34;;;;;;;;;;;;;;;;;;6258539;28;20041;-65
2022/08/05 12:31:35;;;;;;;9.93;8.73;;;;;;;;;;6252602;28;19931;-63
2022/08/05 12:34:36;;;;;;;11.18;8.85;;;;;;;;;;6253521;28;20098;-62
2022/08/05 12:37:37;;;;;;;11.77;8.50;;;;;;;;;;6252352;28;20140;-65
2022/08/05 12:40:38;;;;;;;;;;;;;;;;;;6250444;28;20053;-63
2022/08/05 12:44:06;;;;;;;9.07;7.63;;;;;;;;;;6250072;28;19932;-65
2022/08/05 12:47:07;;;;;;;11.32;8.70;;;;;;;;;;6251637;28;20049;-64
2022/08/05 12:50:14;;;;;;;;;;;;;;;;;;6248161;28;20107;-66
2022/08/05 12:53:15;;;;;;;12.10;8.95;;;;;;;;;;6250425;28;20909;-66
2022/08/05 12:56:22;;;;;;;12.23;8.20;;;;;;;;;;6248875;28;20049;-66
2022/08/05 12:59:29;;;;;;;10.70;7.90;;;;;;;;;;6253638;28;20048;-65
2022/08/05 13:02:30;;;;;;;11.00;8.55;;;;;;;;;;6248649;28;20044;-66
2022/08/05 13:05:33;;;;;;;;;;;;;;;;;;6254323;28;20467;-65
2022/08/05 13:08:37;;;;;;;12.13;8.27;;;;;;;;;;6251733;28;20066;-64
2022/08/05 13:11:40;;;;;;;11.52;8.27;;;;;;;;;;6255541;28;20053;-66
2022/08/05 13:15:00;;;;;;;10.15;8.48;;;;;;;;;;6260426;28;20143;-61
2022/08/05 13:18:01;;;;;;;11.00;7.97;;;;;;;;;;6250055;28;20131;-61
2022/08/05 13:21:01;;;;;;;;;;;;;;;;;;6247481;28;20304;-65
2022/08/05 13:24:02;;;;;;;10.70;7.73;;;;;;;;;;6253256;28;19928;-63
2022/08/05 13:27:03;;;;;;;9.55;7.35;;;;;;;;;;6250163;28;20654;-62
2022/08/05 13:30:05;;;;;;;;;;;;;;;;;;6256810;28;20049;-61
2022/08/05 13:33:06;;;;;;;7.97;7.15;;;;;;;;;;6260089;28;19936;-64
2022/08/05 13:36:07;;;;;;;9.23;7.30;;;;;;;;;;6257849;28;20669;-62
2022/08/05 13:39:08;;;;;;;;;;;;;;;;;;6260743;28;20560;-60
2022/08/05 13:42:09;;;;;;;8.45;7.65;;;;;;;;;;6252778;28;19929;-65
2022/08/05 13:45:11;;;;;;;9.25;7.05;;;;;;;;;;6258309;28;20076;-65
2022/08/05 13:48:11;;;;;;;12.63;8.23;;;;;;;;;;6256534;28;20053;-63
2022/08/05 13:51:15;;;;;;;;;;;;;;;;;;6254747;28;20045;-64
2022/08/05 13:54:16;;;;;;;11.73;7.40;;;;;;;;;;6258679;28;19995;-62
2022/08/05 13:57:16;;;;;;;11.52;7.10;;;;;;;;;;6258219;28;20051;-63
2022/08/05 14:00:18;;;;;;;8.25;6.30;;;;;;;;;;6254489;28;20041;-64
2022/08/05 14:03:19;;;;;;;9.20;5.80;;;;;;;;;;6255103;28;20045;-61
2022/08/05 14:06:19;;;;;;;9.23;7.10;;;;;;;;;;6257050;28;20049;-61
2022/08/05 14:09:20;;;;;;;9.55;6.90;;;;;;;;;;6258120;28;20048;-62
2022/08/05 14:12:21;;;;;;;;;;;;;;;;;;6252263;28;20702;-60
2022/08/05 14:15:21;;;;;;;9.13;6.60;;;;;;;;;;6257008;28;19928;-61
2022/08/05 14:18:22;;;;;;;;;;;;;;;;;;6261249;28;20059;-62
2022/08/05 14:21:22;;;;;;;9.70;6.43;;;;;;;;;;6256059;28;20350;-62
2022/08/05 14:24:23;;;;;;;8.07;6.40;;;;;;;;;;6260306;28;20056;-61
2022/08/05 14:27:24;;;;;;;7.60;6.70;;;;;;;;;;6256505;28;20048;-62
2022/08/05 14:30:25;;;;;;;;;;;;;;;;;;6253809;28;20445;-60
2022/08/05 14:33:25;;;;;;;8.70;6.97;;;;;;;;;;6257814;28;21285;-62
2022/08/05 14:36:26;;;;;;;7.45;6.72;;;;;;;;;;6257460;28;20052;-63
2022/08/05 14:39:26;;;;;;;8.23;6.72;;;;;;;;;;6259160;28;20079;-61
2022/08/05 14:42:27;;;;;;;7.55;6.70;;;;;;;;;;6253450;28;20095;-62
2022/08/05 14:45:27;;;;;;;8.43;6.75;;;;;;;;;;6258294;28;20144;-62
2022/08/05 14:48:28;;;;;;;8.30;6.82;;;;;;;;;;6255949;28;20053;-63
2022/08/05 14:51:29;;;;;;;7.88;6.82;;;;;;;;;;6255346;28;20071;-64
2022/08/05 14:54:30;;;;;;;9.10;6.40;;;;;;;;;;6257675;28;20048;-63
2022/08/05 14:57:30;;;;;;;8.05;6.22;;;;;;;;;;6262430;28;20443;-63
2022/08/05 15:00:31;;;;;;;7.60;6.40;;;;;;;;;;6257233;28;20199;-62
2022/08/05 15:03:32;;;;;;;7.45;6.50;;;;;;;;;;6259529;28;20529;-61
2022/08/05 15:06:32;;;;;;;7.63;6.15;;;;;;;;;;6260367;28;20772;-61
2022/08/05 15:09:33;;;;;;;8.18;6.60;;;;;;;;;;6261041;28;20080;-61
2022/08/05 15:12:33;;;;;;;10.23;6.65;;;;;;;;;;6258656;28;20685;-63
2022/08/05 15:15:34;;;;;;;9.60;6.10;;;;;;;;;;6264987;28;20507;-62
2022/08/05 15:18:34;;;;;;;7.43;6.43;;;;;;;;;;6261494;28;20061;-63
2022/08/05 15:21:35;;;;;;;7.85;6.15;;;;;;;;;;6259999;28;20551;-62
2022/08/05 15:24:36;;;;;;;7.40;5.57;;;;;;;;;;6264027;28;20053;-62
2022/08/05 15:27:36;;;;;;;9.20;6.35;;;;;;;;;;6264590;28;20053;-63
2022/08/05 15:30:38;;;;;;;8.50;6.22;;;;;;;;;;6258079;28;20111;-63
2022/08/05 15:33:40;;;;;;;8.43;6.43;;;;;;;;;;6260894;28;20597;-63
2022/08/05 15:36:40;;;;;;;8.88;6.38;;;;;;;;;;6259269;28;20063;-63
2022/08/05 15:39:41;;;;;;;10.35;6.47;;;;;;;;;;6252711;28;20088;-63
2022/08/05 15:42:41;;;;;;;11.55;6.30;;;;;;;;;;6257388;28;20052;-63
2022/08/05 15:45:46;;;;;;;7.93;6.57;;;;;;;;;;6256486;28;20088;-63
2022/08/05 15:48:47;;;;;;;8.18;6.75;;;;;;;;;;6249187;28;20052;-61
2022/08/05 15:51:47;;;;;;;8.10;6.22;;;;;;;;;;6248811;28;20037;-61
2022/08/05 15:54:48;;;;;;;8.82;6.75;;;;;;;;;;6251625;28;20576;-60
2022/08/05 15:57:48;;;;;;;8.05;6.80;;;;;;;;;;6248365;28;20057;-62
2022/08/05 16:00:49;;;;;;;38.67;34.85;;;;;;;;;;6248067;28;20136;-61
2022/08/05 16:03:49;;;;;;;22.73;18.08;;;;;;;;;;6251071;28;20105;-62
2022/08/05 16:06:50;;;;;;;7.85;7.10;;;;;;;;;;6256830;28;20555;-62
2022/08/05 16:09:51;;;;;;;8.13;7.07;;;;;;;;;;6260757;28;20448;-62
2022/08/05 16:12:51;;;;;;;11.35;7.07;;;;;;;;;;6258498;28;20041;-62
2022/08/05 16:15:52;;;;;;;10.20;7.30;;;;;;;;;;6258228;28;20049;-61
2022/08/05 16:18:52;;;;;;;8.18;6.95;;;;;;;;;;6257230;28;20040;-63
2022/08/05 16:21:53;;;;;;;9.63;7.18;;;;;;;;;;6256099;28;20472;-61
2022/08/05 16:24:53;;;;;;;8.93;6.85;;;;;;;;;;6256633;28;20052;-60
2022/08/05 16:27:54;;;;;;;9.18;7.47;;;;;;;;;;6256277;28;20070;-60
2022/08/05 16:30:54;;;;;;;10.73;7.70;;;;;;;;;;6255322;28;20056;-60
2022/08/05 16:33:55;;;;;;;10.15;7.47;;;;;;;;;;6258302;28;20061;-63
2022/08/05 16:36:56;;;;;;;11.48;7.68;;;;;;;;;;6258154;28;20480;-62
2022/08/05 16:39:56;;;;;;;8.30;7.20;;;;;;;;;;6256852;28;21255;-62
2022/08/05 16:42:57;;;;;;;8.57;7.45;;;;;;;;;;6257487;28;20052;-59
2022/08/05 16:45:59;;;;;;;10.88;7.70;;;;;;;;;;6256860;28;20421;-62
2022/08/05 16:49:00;;;;;;;9.15;7.38;;;;;;;;;;6259516;28;20041;-61
2022/08/05 16:52:00;;;;;;;9.18;7.70;;;;;;;;;;6254553;28;20072;-62
2022/08/05 16:55:02;;;;;;;9.57;7.30;;;;;;;;;;6258639;28;20153;-61
2022/08/05 16:58:02;;;;;;;8.18;6.97;;;;;;;;;;6258523;28;20073;-61
2022/08/05 17:01:03;;;;;;;9.13;7.63;;;;;;;;;;6256518;28;20095;-60
2022/08/05 17:04:04;;;;;;;10.43;7.30;;;;;;;;;;6258097;28;20055;-62
2022/08/05 17:07:05;;;;;;;9.93;7.60;;;;;;;;;;6258007;28;20098;-63
2022/08/05 17:10:06;;;;;;;9.68;7.45;;;;;;;;;;6256985;28;20698;-64
2022/08/05 17:13:06;;;;;;;8.00;7.20;;;;;;;;;;6259731;28;20059;-61
2022/08/05 17:16:07;;;;;;;10.35;7.55;;;;;;;;;;6260291;28;20055;-59
2022/08/05 17:19:08;;;;;;;10.13;7.63;;;;;;;;;;6257602;28;21299;-61
2022/08/05 17:22:09;;;;;;;9.63;7.15;;;;;;;;;;6254727;28;20730;-61
2022/08/05 17:25:09;;;;;;;10.77;7.38;;;;;;;;;;6257397;28;20049;-62
2022/08/05 17:28:10;;;;;;;9.65;8.23;;;;;;;;;;6250591;28;20542;-60
2022/08/05 17:31:11;;;;;;;10.70;7.72;;;;;;;;;;6245911;28;20053;-63
2022/08/05 17:34:11;;;;;;;9.48;7.50;;;;;;;;;;6251764;28;20943;-62
2022/08/05 17:37:12;;;;;;;9.25;7.60;;;;;;;;;;6251222;28;20057;-61
2022/08/05 17:40:14;;;;;;;11.68;7.65;;;;;;;;;;6243379;28;20052;-62
2022/08/05 17:43:15;;;;;;;11.48;7.22;;;;;;;;;;6245943;28;20079;-61
2022/08/05 17:46:16;;;;;;;14.13;7.82;;;;;;;;;;6256580;28;20061;-62
2022/08/05 17:49:17;;;;;;;11.82;8.27;;;;;;;;;;6262040;28;20056;-61
2022/08/05 17:52:17;;;;;;;13.38;9.00;;;;;;;;;;6262009;28;20045;-61
2022/08/05 17:55:18;;;;;;;;;;;;;;;;;;6263577;28;20799;-63
2022/08/05 17:58:19;;;;;;;13.93;10.10;;;;;;;;;;6263330;28;20523;-64
2022/08/05 18:01:19;;;;;;;;;;;;;;;;;;6258414;28;20029;-61
2022/08/05 18:04:20;;;;;;;12.38;9.43;;;;;;;;;;6261990;28;19924;-66
2022/08/05 18:07:20;;;;;;;12.93;9.80;;;;;;;;;;6260788;28;20041;-66
2022/08/05 18:10:24;;;;;;;13.68;9.77;;;;;;;;;;6258186;28;20055;-62
2022/08/05 18:13:24;;;;;;;16.27;9.18;;;;;;;;;;6257526;28;20773;-64